Time;durP1;ratioP1;P1;durP2;ratioP2;P2;SDS_P1;SDS_P2;PMS_P1;PMS_P2;Temp;Humidity;BMP_temperature;BMP_pressure;BME280_temperature;BME280_humidity;BME280_pressure;Samples;Min_cycle;Max_cycle;Signal;HPM_P1;HPM_P2
2023/04/16 00:00:05;;;;;;;29.27;19.33;;;;;;;15.91;65.90;101136.13;5011104;28;97257;-70
2023/04/16 00:02:33;;;;;;;25.58;19.10;;;;;;;15.78;65.97;101134.19;5010269;28;97145;-70
2023/04/16 00:04:59;;;;;;;26.95;19.13;;;;;;;15.78;66.31;101136.84;5009595;28;98882;-71
2023/04/16 00:07:26;;;;;;;26.48;19.80;;;;;;;15.87;65.69;101131.06;5014006;28;98968;-71
2023/04/16 00:09:52;;;;;;;25.67;19.20;;;;;;;15.85;66.05;101133.78;5014493;28;97119;-71
2023/04/16 00:12:19;;;;;;;27.40;19.50;;;;;;;15.72;66.46;101137.16;5016612;28;97619;-70
2023/04/16 00:14:45;;;;;;;29.85;19.67;;;;;;;15.69;66.24;101145.28;5005207;28;97725;-70
2023/04/16 00:17:11;;;;;;;28.27;20.85;;;;;;;15.83;66.15;101142.78;5016367;28;97763;-70
2023/04/16 00:19:39;;;;;;;25.88;19.85;;;;;;;15.85;66.11;101143.59;5014168;28;97893;-70
2023/04/16 00:22:06;;;;;;;27.50;20.55;;;;;;;15.82;66.19;101149.06;5019991;28;97311;-71
2023/04/16 00:24:32;;;;;;;31.08;20.27;;;;;;;15.67;66.57;101149.84;5005394;28;97990;-70
2023/04/16 00:26:58;;;;;;;30.08;20.95;;;;;;;15.75;66.30;101142.34;5009487;28;98697;-70
2023/04/16 00:29:27;;;;;;;31.58;21.30;;;;;;;15.72;66.48;101148.69;5012697;28;97240;-69
2023/04/16 00:31:53;;;;;;;32.92;21.38;;;;;;;15.68;66.74;101143.59;5013826;28;98647;-70
2023/04/16 00:34:20;;;;;;;26.65;20.63;;;;;;;15.82;66.38;101143.72;5018209;28;98059;-70
2023/04/16 00:36:48;;;;;;;30.13;20.27;;;;;;;15.79;66.38;101146.56;5024034;28;97546;-70
2023/04/16 00:39:14;;;;;;;30.48;20.48;;;;;;;15.78;66.21;101145.69;5017975;28;97176;-71
2023/04/16 00:41:41;;;;;;;31.15;21.08;;;;;;;15.79;66.36;101149.22;5020163;28;97566;-71
2023/04/16 00:44:07;;;;;;;27.10;19.88;;;;;;;15.66;66.80;101148.13;5017438;28;101005;-71
2023/04/16 00:46:34;;;;;;;28.33;20.65;;;;;;;15.83;66.36;101148.13;5016616;28;98804;-71
2023/04/16 00:49:02;;;;;;;27.58;20.23;;;;;;;15.69;66.53;101148.81;5011846;28;96842;-70
2023/04/16 00:51:30;;;;;;;29.45;21.30;;;;;;;15.70;66.46;101139.03;5014244;28;99483;-72
2023/04/16 00:53:57;;;;;;;27.90;20.83;;;;;;;15.70;66.63;101150.53;5020223;28;99362;-70
2023/04/16 00:56:24;;;;;;;27.58;20.70;;;;;;;15.56;67.04;101145.03;5020642;28;98882;-72
2023/04/16 00:58:51;;;;;;;29.80;20.63;;;;;;;15.75;66.25;101142.34;5017601;28;96783;-69
2023/04/16 01:01:17;;;;;;;28.80;20.60;;;;;;;15.75;66.51;101145.00;5016592;28;97714;-69
2023/04/16 01:03:45;;;;;;;31.13;20.23;;;;;;;15.82;66.36;101138.41;5005018;28;101844;-70
2023/04/16 01:06:12;;;;;;;32.67;21.40;;;;;;;15.92;66.11;101150.31;5020060;28;99223;-69
2023/04/16 01:08:39;;;;;;;27.35;20.33;;;;;;;15.89;66.21;101155.81;5018992;28;97395;-70
2023/04/16 01:11:06;;;;;;;26.92;20.65;;;;;;;15.76;66.44;101154.69;5004044;28;99659;-69
2023/04/16 01:13:33;;;;;;;29.75;20.60;;;;;;;15.76;66.64;101165.34;5007687;28;99342;-70
2023/04/16 01:16:00;;;;;;;28.58;20.60;;;;;;;15.88;65.95;101160.25;5015408;28;98892;-70
2023/04/16 01:18:27;;;;;;;25.85;19.33;;;;;;;15.92;65.75;101156.53;5017177;28;97837;-70
2023/04/16 01:20:55;;;;;;;29.38;20.35;;;;;;;15.66;66.23;101166.75;5010282;28;97399;-70
2023/04/16 01:23:21;;;;;;;27.85;20.13;;;;;;;15.65;66.20;101165.91;4999588;28;99201;-70
2023/04/16 01:25:48;;;;;;;28.80;19.90;;;;;;;15.64;65.98;101177.50;4996914;28;99502;-69
2023/04/16 01:28:14;;;;;;;29.20;19.70;;;;;;;15.53;66.65;101178.03;5016114;28;97174;-71
2023/04/16 01:30:41;;;;;;;28.05;19.30;;;;;;;15.60;66.30;101172.41;5010228;28;98584;-70
2023/04/16 01:33:09;;;;;;;27.67;19.08;;;;;;;15.52;66.66;101172.75;5011623;28;99403;-70
2023/04/16 01:35:36;;;;;;;28.15;19.88;;;;;;;15.49;66.79;101173.75;5008382;28;101328;-69
2023/04/16 01:38:06;;;;;;;30.10;20.83;;;;;;;15.70;66.51;101176.31;5015197;28;97312;-69
2023/04/16 01:40:33;;;;;;;27.05;19.17;;;;;;;15.62;66.65;101182.03;5012638;28;97198;-69
2023/04/16 01:42:59;;;;;;;28.50;21.00;;;;;;;15.62;66.54;101175.88;5015508;28;96920;-70
2023/04/16 01:45:25;;;;;;;29.13;20.95;;;;;;;15.57;66.77;101175.19;5012697;28;98789;-69
2023/04/16 01:47:52;;;;;;;98.88;55.10;;;;;;;15.61;66.59;101177.66;5016552;28;96740;-70
2023/04/16 01:50:19;;;;;;;52.38;32.72;;;;;;;15.33;67.25;101178.09;5009926;27;97256;-70
2023/04/16 01:52:46;;;;;;;26.90;19.38;;;;;;;15.52;66.87;101178.97;5008916;28;98768;-70
2023/04/16 01:55:13;;;;;;;28.10;19.58;;;;;;;15.49;66.43;101184.41;5011931;28;99464;-71
2023/04/16 01:57:40;;;;;;;26.60;20.08;;;;;;;15.39;66.96;101183.13;5013449;28;96842;-71
2023/04/16 02:00:08;;;;;;;30.08;19.08;;;;;;;15.40;66.88;101187.53;5012328;28;96800;-71
2023/04/16 02:02:35;;;;;;;27.73;18.77;;;;;;;15.51;66.47;101193.19;5004973;28;98818;-71
2023/04/16 02:05:02;;;;;;;27.13;18.77;;;;;;;15.59;66.59;101178.66;5011462;28;97756;-71
2023/04/16 02:07:30;;;;;;;30.60;18.33;;;;;;;15.35;67.08;101199.34;5007553;28;98143;-70
2023/04/16 02:09:57;;;;;;;26.90;18.27;;;;;;;15.42;66.88;101192.78;5010667;28;97479;-71
2023/04/16 02:12:25;;;;;;;26.00;18.42;;;;;;;15.59;66.16;101194.66;5001181;28;98940;-70
2023/04/16 02:14:51;;;;;;;24.02;18.33;;;;;;;15.50;66.57;101196.78;4997098;28;98920;-69
2023/04/16 02:17:18;;;;;;;25.95;18.05;;;;;;;15.47;66.56;101191.63;5009406;28;101682;-70
2023/04/16 02:19:44;;;;;;;25.50;17.52;;;;;;;15.51;66.27;101200.31;5007387;28;99087;-69
2023/04/16 02:22:10;;;;;;;26.60;18.75;;;;;;;15.54;66.37;101200.22;5011281;28;98951;-70
2023/04/16 02:24:37;;;;;;;25.83;17.98;;;;;;;15.42;66.30;101204.31;5017721;28;100606;-70
2023/04/16 02:27:03;;;;;;;23.65;17.30;;;;;;;15.45;66.28;101204.13;5008781;28;99218;-69
2023/04/16 02:29:31;;;;;;;28.48;17.40;;;;;;;15.58;65.92;101204.44;5002562;28;97042;-69
2023/04/16 02:31:58;;;;;;;25.15;17.65;;;;;;;15.52;65.78;101204.69;5014907;28;99102;-69
2023/04/16 02:34:24;;;;;;;27.42;17.85;;;;;;;15.45;66.04;101203.28;5003793;28;99082;-69
2023/04/16 02:36:51;;;;;;;27.23;19.15;;;;;;;15.46;66.17;101199.69;5006433;28;96835;-69
2023/04/16 02:39:17;;;;;;;27.70;18.02;;;;;;;15.19;66.91;101207.19;5000280;28;97301;-70
2023/04/16 02:41:44;;;;;;;28.13;18.88;;;;;;;15.32;66.22;101202.13;5002464;28;98804;-70
2023/04/16 02:44:10;;;;;;;27.10;19.05;;;;;;;15.31;66.69;101203.94;5014799;28;98945;-70
2023/04/16 02:46:38;;;;;;;26.35;19.55;;;;;;;15.08;66.73;101215.69;5009909;28;96914;-69
2023/04/16 02:49:04;;;;;;;28.38;19.17;;;;;;;15.33;66.58;101210.06;5017408;28;96886;-69
2023/04/16 02:51:32;;;;;;;29.52;19.52;;;;;;;15.44;66.21;101215.72;5009708;28;98854;-71
2023/04/16 02:53:58;;;;;;;30.20;19.85;;;;;;;15.46;66.37;101213.00;5009683;28;99342;-70
2023/04/16 02:56:25;;;;;;;31.95;19.75;;;;;;;15.38;66.45;101213.34;5015630;28;96768;-70
2023/04/16 02:58:51;;;;;;;32.30;20.67;;;;;;;15.40;66.13;101216.81;5001304;28;96865;-70
2023/04/16 03:01:17;;;;;;;33.85;20.98;;;;;;;15.18;66.45;101221.41;5007280;28;98927;-70
2023/04/16 03:03:45;;;;;;;32.63;21.90;;;;;;;15.30;65.77;101217.31;5006091;28;101000;-70
2023/04/16 03:06:11;;;;;;;35.47;20.95;;;;;;;15.36;66.20;101220.53;5011413;28;97305;-71
2023/04/16 03:08:38;;;;;;;35.25;21.83;;;;;;;15.20;66.53;101219.56;4997831;28;96978;-70
2023/04/16 03:11:04;;;;;;;36.95;22.67;;;;;;;15.26;66.65;101229.06;5002608;28;99079;-71
2023/04/16 03:13:31;;;;;;;32.05;21.65;;;;;;;15.21;66.27;101221.28;5012963;28;99208;-71
2023/04/16 03:15:57;;;;;;;36.58;22.90;;;;;;;15.17;66.32;101225.00;5003521;28;97178;-70
2023/04/16 03:18:24;;;;;;;37.45;22.13;;;;;;;15.12;66.38;101224.38;4997469;28;97445;-71
2023/04/16 03:20:53;;;;;;;34.47;22.40;;;;;;;15.15;66.54;101232.22;5008275;28;98185;-71
2023/04/16 03:23:19;;;;;;;33.45;21.95;;;;;;;15.06;66.95;101229.97;5013158;28;100415;-70
2023/04/16 03:25:46;;;;;;;33.35;21.33;;;;;;;15.05;66.42;101233.56;5003560;28;96786;-70
2023/04/16 03:28:13;;;;;;;35.05;21.83;;;;;;;15.24;66.00;101237.09;5012453;28;96930;-70
2023/04/16 03:30:39;;;;;;;36.03;21.02;;;;;;;15.00;66.21;101235.59;4999627;28;98754;-70
2023/04/16 03:33:05;;;;;;;40.28;22.08;;;;;;;15.05;66.21;101241.56;5013952;28;99232;-70
2023/04/16 03:35:32;;;;;;;31.20;21.13;;;;;;;14.89;66.32;101241.41;4999943;28;97536;-69
2023/04/16 03:37:59;;;;;;;40.22;21.45;;;;;;;14.89;66.19;101237.88;5009422;28;97324;-70
2023/04/16 03:40:26;;;;;;;33.70;21.00;;;;;;;14.51;67.37;101237.78;5013521;28;98317;-69
2023/04/16 03:42:52;;;;;;;35.83;21.27;;;;;;;14.64;67.57;101241.63;5014091;28;99040;-69
2023/04/16 03:45:19;;;;;;;39.08;21.90;;;;;;;14.74;66.90;101237.66;5013553;28;97474;-69
2023/04/16 03:47:47;;;;;;;30.90;20.67;;;;;;;14.82;66.61;101236.44;5011519;28;96775;-69
2023/04/16 03:50:13;;;;;;;34.60;21.00;;;;;;;14.92;66.25;101238.59;5010468;28;99113;-70
2023/04/16 03:52:40;;;;;;;31.58;19.25;;;;;;;15.05;66.00;101246.88;5005503;28;99187;-70
2023/04/16 03:55:08;;;;;;;32.33;20.23;;;;;;;14.82;66.39;101247.06;5006584;28;96816;-69
2023/04/16 03:57:34;;;;;;;30.05;18.92;;;;;;;15.13;65.31;101248.25;5001910;28;97912;-69
2023/04/16 04:00:01;;;;;;;27.85;17.67;;;;;;;14.99;65.86;101253.34;5006104;28;99281;-70
2023/04/16 04:02:27;;;;;;;32.50;18.58;;;;;;;15.02;65.23;101252.38;5010535;28;98663;-69
2023/04/16 04:04:54;;;;;;;28.05;18.35;;;;;;;15.05;65.16;101254.88;5007944;28;98607;-70
2023/04/16 04:07:20;;;;;;;29.77;18.50;;;;;;;15.03;65.30;101256.75;5009194;28;98651;-70
2023/04/16 04:09:47;;;;;;;29.95;18.80;;;;;;;14.98;65.52;101266.72;4998430;28;98841;-69
2023/04/16 04:12:14;;;;;;;30.25;19.02;;;;;;;15.09;65.41;101267.13;4998646;28;99169;-70
2023/04/16 04:14:41;;;;;;;35.35;20.02;;;;;;;14.96;65.64;101271.28;5007277;28;97006;-70
2023/04/16 04:17:08;;;;;;;31.42;19.67;;;;;;;14.96;65.54;101274.78;5005393;28;97236;-70
2023/04/16 04:19:35;;;;;;;40.03;21.27;;;;;;;14.99;65.52;101284.41;5011151;28;99516;-70
2023/04/16 04:22:01;;;;;;;34.08;20.40;;;;;;;14.89;65.70;101277.81;5009310;28;98868;-71
2023/04/16 04:24:27;;;;;;;35.38;21.23;;;;;;;15.05;65.11;101277.03;5003301;28;97833;-71
2023/04/16 04:26:54;;;;;;;36.70;20.38;;;;;;;14.98;65.43;101280.03;5008923;28;97954;-69
2023/04/16 04:29:21;;;;;;;42.67;23.13;;;;;;;14.95;65.70;101277.53;5011048;28;101363;-71
2023/04/16 04:31:48;;;;;;;36.33;20.42;;;;;;;14.96;65.55;101287.25;5011782;28;99460;-71
2023/04/16 04:34:14;;;;;;;35.63;20.88;;;;;;;14.67;65.77;101284.06;4999656;28;98022;-70
2023/04/16 04:36:40;;;;;;;36.05;20.88;;;;;;;14.87;65.92;101287.63;4996964;28;96967;-70
2023/04/16 04:39:07;;;;;;;34.90;21.42;;;;;;;14.90;65.75;101288.34;4996200;28;98941;-70
2023/04/16 04:41:34;;;;;;;42.58;21.90;;;;;;;14.80;65.70;101291.50;5013336;27;98780;-71
2023/04/16 04:44:01;;;;;;;38.65;22.10;;;;;;;14.70;66.22;101291.88;5004870;28;97701;-70
2023/04/16 04:46:28;;;;;;;36.42;21.75;;;;;;;14.75;66.08;101291.72;5014137;28;97401;-70
2023/04/16 04:48:55;;;;;;;48.95;22.80;;;;;;;14.87;65.91;101295.63;5003109;28;98928;-70
2023/04/16 04:51:21;;;;;;;42.22;22.85;;;;;;;14.82;65.65;101301.16;5025611;28;99179;-70
2023/04/16 04:53:48;;;;;;;44.50;22.92;;;;;;;14.68;66.02;101291.13;5013017;28;100878;-71
2023/04/16 04:56:14;;;;;;;41.70;22.50;;;;;;;14.66;66.49;101303.63;5016881;27;98736;-70
2023/04/16 04:58:40;;;;;;;39.60;22.42;;;;;;;14.88;65.73;101300.00;5007350;28;99159;-71
2023/04/16 05:01:07;;;;;;;40.47;22.92;;;;;;;14.85;65.80;101301.00;5008057;28;98840;-70
2023/04/16 05:03:35;;;;;;;39.60;22.23;;;;;;;14.88;65.52;101308.00;5001307;28;98837;-69
2023/04/16 05:06:01;;;;;;;38.10;22.05;;;;;;;14.90;65.60;101314.13;5007506;28;97320;-70
2023/04/16 05:08:27;;;;;;;35.10;21.95;;;;;;;14.91;65.58;101313.16;5013002;28;97993;-70
2023/04/16 05:10:54;;;;;;;43.17;22.88;;;;;;;15.01;65.27;101319.81;5001312;28;98122;-70
2023/04/16 05:13:20;;;;;;;38.92;21.00;;;;;;;14.84;65.45;101322.34;5011227;28;96951;-70
2023/04/16 05:15:47;;;;;;;37.28;20.88;;;;;;;15.09;64.79;101323.00;5013479;28;97193;-70
2023/04/16 05:18:13;;;;;;;36.70;21.30;;;;;;;15.11;64.48;101315.81;5003403;28;100657;-70
2023/04/16 05:20:41;;;;;;;40.92;22.42;;;;;;;14.87;65.23;101322.22;5012953;28;101611;-71
2023/04/16 05:23:07;;;;;;;40.65;21.90;;;;;;;15.00;65.18;101324.28;5010540;28;98809;-70
2023/04/16 05:25:33;;;;;;;42.78;20.55;;;;;;;15.07;64.77;101319.53;5013153;28;97804;-70
2023/04/16 05:28:00;;;;;;;36.63;20.40;;;;;;;15.09;64.87;101325.69;5010777;28;99493;-71
2023/04/16 05:30:26;;;;;;;39.53;20.95;;;;;;;15.15;64.84;101334.25;5010282;28;98751;-70
2023/04/16 05:32:53;;;;;;;32.42;19.40;;;;;;;15.17;64.73;101334.16;5009499;28;97232;-70
2023/04/16 05:35:19;;;;;;;35.08;20.77;;;;;;;15.05;64.88;101342.69;5011204;28;96923;-70
2023/04/16 05:37:47;;;;;;;37.17;20.40;;;;;;;15.10;64.55;101341.56;5007604;28;98998;-70
2023/04/16 05:40:14;;;;;;;36.20;20.58;;;;;;;15.14;64.51;101340.50;5017843;28;100525;-69
2023/04/16 05:42:40;;;;;;;35.55;20.08;;;;;;;15.11;64.91;101340.63;5015874;28;96791;-70
2023/04/16 05:45:08;;;;;;;31.00;19.73;;;;;;;15.01;64.96;101344.66;5016429;28;96950;-69
2023/04/16 05:47:34;;;;;;;35.30;19.60;;;;;;;15.17;64.56;101347.47;5024354;28;98975;-70
2023/04/16 05:50:01;;;;;;;31.80;19.48;;;;;;;15.21;64.26;101343.75;5007509;28;99122;-71
2023/04/16 05:52:28;;;;;;;30.73;18.50;;;;;;;15.10;64.61;101341.56;5006646;28;97580;-70
2023/04/16 05:54:56;;;;;;;29.08;18.00;;;;;;;15.24;64.31;101348.91;5009558;28;96878;-70
2023/04/16 05:57:23;;;;;;;32.00;18.67;;;;;;;15.30;64.11;101353.09;5020468;28;99466;-72
2023/04/16 05:59:49;;;;;;;35.08;18.55;;;;;;;15.24;64.01;101354.25;5007254;28;98822;-70
2023/04/16 06:02:16;;;;;;;28.98;17.30;;;;;;;15.21;64.56;101356.19;5006177;28;96823;-70
2023/04/16 06:04:42;;;;;;;24.73;16.75;;;;;;;15.27;64.00;101354.13;5010714;28;97782;-70
2023/04/16 06:07:08;;;;;;;28.70;17.80;;;;;;;15.31;64.33;101355.69;5010726;28;99327;-69
2023/04/16 06:09:35;;;;;;;34.22;17.38;;;;;;;15.32;64.34;101361.88;5008788;28;101643;-70
2023/04/16 06:12:03;;;;;;;27.58;17.23;;;;;;;15.34;64.32;101360.91;5007773;28;97248;-70
2023/04/16 06:14:30;;;;;;;31.45;17.67;;;;;;;15.48;63.94;101365.59;5007748;28;98012;-71
2023/04/16 06:16:56;;;;;;;28.38;17.58;;;;;;;15.51;63.55;101366.31;5003244;28;98410;-71
2023/04/16 06:19:23;;;;;;;26.98;16.48;;;;;;;15.54;63.47;101378.66;5016433;28;99087;-71
2023/04/16 06:21:50;;;;;;;25.48;16.83;;;;;;;15.49;63.28;101370.00;5013749;28;98012;-69
2023/04/16 06:24:17;;;;;;;25.15;15.90;;;;;;;15.62;62.98;101375.66;4998903;28;97833;-71
2023/04/16 06:26:44;;;;;;;24.92;16.70;;;;;;;15.49;63.27;101375.31;5007420;28;98998;-71
2023/04/16 06:29:12;;;;;;;28.10;17.70;;;;;;;15.54;63.39;101374.19;5011283;28;98785;-71
2023/04/16 06:31:38;;;;;;;32.35;17.98;;;;;;;15.69;63.36;101382.38;5011523;28;97331;-71
2023/04/16 06:34:05;;;;;;;29.27;17.20;;;;;;;15.60;63.48;101378.38;5010597;28;98018;-73
2023/04/16 06:36:31;;;;;;;28.00;17.45;;;;;;;15.60;63.23;101382.84;5011446;28;98932;-71
2023/04/16 06:38:57;;;;;;;28.67;17.52;;;;;;;15.74;62.80;101380.41;4996375;28;98825;-71
2023/04/16 06:41:25;;;;;;;30.55;17.88;;;;;;;15.60;63.14;101383.72;5002500;28;98562;-69
2023/04/16 06:43:52;;;;;;;29.08;17.92;;;;;;;15.62;63.06;101384.47;5011457;28;98475;-71
2023/04/16 06:46:19;;;;;;;33.47;18.10;;;;;;;15.47;63.26;101393.16;5015504;28;99367;-70
2023/04/16 06:48:46;;;;;;;28.10;18.52;;;;;;;15.44;63.71;101390.63;5006166;28;99242;-70
2023/04/16 06:51:12;;;;;;;27.25;17.55;;;;;;;15.51;63.53;101390.28;5011335;28;98766;-71
2023/04/16 06:53:39;;;;;;;31.17;18.73;;;;;;;15.48;63.26;101393.09;5016801;28;97362;-70
2023/04/16 06:56:06;;;;;;;28.30;18.30;;;;;;;15.46;63.47;101402.06;5015925;28;98681;-70
2023/04/16 06:58:33;;;;;;;28.60;18.02;;;;;;;15.57;63.26;101398.94;5004117;28;98721;-71
2023/04/16 07:01:01;;;;;;;28.67;18.55;;;;;;;15.61;63.42;101396.09;4999422;28;96856;-70
2023/04/16 07:03:29;;;;;;;30.33;18.73;;;;;;;15.52;63.53;101397.38;5015942;28;97548;-70
2023/04/16 07:05:56;;;;;;;29.60;18.02;;;;;;;15.64;63.55;101401.25;5001715;28;100578;-70
2023/04/16 07:08:23;;;;;;;31.52;18.30;;;;;;;15.64;63.86;101400.41;5007495;28;97708;-70
2023/04/16 07:10:50;;;;;;;46.70;25.52;;;;;;;15.71;63.38;101407.19;5008044;28;98540;-70
2023/04/16 07:13:18;;;;;;;29.58;18.67;;;;;;;15.60;63.33;101402.34;5010129;28;97432;-70
2023/04/16 07:15:44;;;;;;;29.83;19.13;;;;;;;15.59;63.34;101407.75;4996594;28;99195;-72
2023/04/16 07:18:11;;;;;;;34.42;20.58;;;;;;;15.57;63.41;101405.13;5003444;28;98857;-74
2023/04/16 07:20:40;;;;;;;29.63;18.92;;;;;;;15.62;63.29;101407.63;5003172;28;97646;-71
2023/04/16 07:23:06;;;;;;;29.77;18.98;;;;;;;15.56;62.98;101414.06;5010895;28;97035;-70
2023/04/16 07:25:32;;;;;;;28.27;18.13;;;;;;;15.60;62.90;101415.66;5005028;28;99703;-69
2023/04/16 07:27:59;;;;;;;28.30;17.48;;;;;;;15.66;63.00;101414.53;5007816;28;98847;-70
2023/04/16 07:30:31;;;;;;;31.08;18.85;;;;;;;15.68;63.11;101424.19;5005765;27;97279;-70
2023/04/16 07:32:58;;;;;;;29.60;18.40;;;;;;;15.65;63.37;101428.78;4995569;28;97176;-70
2023/04/16 07:35:24;;;;;;;28.05;17.75;;;;;;;15.48;63.57;101426.84;5003558;28;98490;-70
2023/04/16 07:37:52;;;;;;;26.00;17.63;;;;;;;15.70;62.56;101429.41;4996427;28;98941;-71
2023/04/16 07:40:19;;;;;;;28.35;17.42;;;;;;;15.59;62.75;101423.72;4993125;28;98740;-70
2023/04/16 07:42:45;;;;;;;29.48;18.10;;;;;;;15.61;63.29;101425.41;5002475;28;97076;-70
2023/04/16 07:45:12;;;;;;;29.50;16.88;;;;;;;15.63;62.95;101438.63;4992373;28;98976;-70
2023/04/16 07:47:38;;;;;;;28.75;17.30;;;;;;;15.37;64.00;101435.31;5001106;28;99371;-71
2023/04/16 07:50:06;;;;;;;28.20;16.95;;;;;;;15.49;63.09;101439.25;4997399;28;99437;-70
2023/04/16 07:52:32;;;;;;;29.90;18.45;;;;;;;15.66;63.18;101435.84;5001288;28;97034;-73
2023/04/16 07:55:00;;;;;;;28.83;17.13;;;;;;;15.63;63.03;101446.63;4997141;28;99233;-71
2023/04/16 07:57:27;;;;;;;33.65;17.48;;;;;;;15.50;63.57;101441.81;5001782;28;99173;-71
2023/04/16 07:59:53;;;;;;;27.17;17.25;;;;;;;15.59;63.29;101450.38;5000975;28;97702;-71
2023/04/16 08:02:20;;;;;;;24.30;15.80;;;;;;;15.28;63.55;101448.19;5005930;28;97340;-71
2023/04/16 08:04:46;;;;;;;28.92;17.00;;;;;;;15.53;63.56;101455.03;4984833;28;99720;-72
2023/04/16 08:07:13;;;;;;;27.05;16.23;;;;;;;15.69;63.37;101451.66;4987609;28;101313;-71
2023/04/16 08:09:48;;;;;;;26.92;16.50;;;;;;;15.67;63.39;101458.88;4994246;28;97277;-71
2023/04/16 08:12:16;;;;;;;26.98;16.92;;;;;;;15.83;62.88;101459.91;4996063;28;98486;-72
2023/04/16 08:14:43;;;;;;;26.98;15.98;;;;;;;15.61;63.13;101451.16;4990688;28;98993;-74
2023/04/16 08:17:10;;;;;;;30.00;16.55;;;;;;;15.32;63.42;101458.63;4991326;28;99560;-71
2023/04/16 08:19:37;;;;;;;22.60;14.95;;;;;;;15.49;63.77;101457.88;4991110;28;97322;-73
2023/04/16 08:22:03;;;;;;;26.58;16.23;;;;;;;15.45;63.75;101462.47;4994308;28;98853;-72
2023/04/16 08:24:30;;;;;;;24.50;15.68;;;;;;;15.62;63.46;101466.22;4994943;28;99957;-72
2023/04/16 08:26:56;;;;;;;27.65;15.25;;;;;;;15.50;63.75;101468.44;4998949;28;98936;-71
2023/04/16 08:29:25;;;;;;;25.83;16.27;;;;;;;15.52;63.61;101473.72;4996685;28;98492;-71
2023/04/16 08:31:51;;;;;;;28.40;17.48;;;;;;;15.44;64.26;101474.03;4997527;28;97102;-71
2023/04/16 08:34:18;;;;;;;26.52;16.27;;;;;;;15.61;63.89;101470.69;4995608;28;99499;-71
2023/04/16 08:36:45;;;;;;;28.63;16.02;;;;;;;15.63;64.26;101475.91;5008805;28;98826;-72
2023/04/16 08:39:11;;;;;;;28.92;16.42;;;;;;;15.87;63.64;101485.50;5005194;28;97160;-71
2023/04/16 08:44:41;;;;;;;25.10;14.85;;;;;;;15.79;63.39;101488.50;5005164;28;98116;-72
2023/04/16 08:47:09;;;;;;;26.85;14.98;;;;;;;15.85;63.28;101490.88;5018198;28;100618;-73
2023/04/16 08:49:36;;;;;;;27.75;14.40;;;;;;;15.89;63.31;101491.59;4997522;28;96926;-72
2023/04/16 08:52:06;;;;;;;25.08;15.30;;;;;;;15.71;63.32;101487.09;5003050;28;97104;-72
2023/04/16 08:54:39;;;;;;;21.85;14.68;;;;;;;15.90;63.16;101499.53;5002457;28;96967;-72
2023/04/16 08:57:06;;;;;;;24.58;14.70;;;;;;;15.48;63.49;101496.97;5001223;28;98080;-71
2023/04/16 08:59:35;;;;;;;28.58;16.00;;;;;;;15.80;63.67;101502.69;5002905;28;96895;-72
2023/04/16 09:02:02;;;;;;;29.80;16.27;;;;;;;15.82;63.65;101499.00;5004522;28;98905;-72
2023/04/16 09:04:29;;;;;;;25.00;15.25;;;;;;;15.80;63.45;101498.22;5002302;28;98974;-71
2023/04/16 09:06:56;;;;;;;23.67;14.85;;;;;;;15.76;63.41;101511.75;5016331;28;99247;-71
2023/04/16 09:09:23;;;;;;;27.80;16.35;;;;;;;15.89;63.29;101503.13;5009002;28;98628;-73
2023/04/16 09:11:51;;;;;;;23.95;14.95;;;;;;;15.89;63.54;101507.59;5012350;28;96819;-71
2023/04/16 09:14:17;;;;;;;22.13;14.70;;;;;;;16.15;62.91;101512.59;5003972;28;99205;-72
2023/04/16 09:16:46;;;;;;;22.02;14.65;;;;;;;16.38;62.09;101511.53;5009330;28;98917;-73
2023/04/16 09:19:12;;;;;;;25.15;14.32;;;;;;;16.34;61.65;101508.13;5002149;28;98910;-72
2023/04/16 09:21:41;;;;;;;22.65;14.00;;;;;;;16.27;60.90;101516.50;5007317;28;97364;-73
2023/04/16 09:24:08;;;;;;;20.30;12.57;;;;;;;16.16;61.41;101521.44;4992357;28;99423;-73
2023/04/16 09:26:35;;;;;;;19.98;11.73;;;;;;;16.15;61.44;101523.25;5005020;28;99292;-71
2023/04/16 09:29:01;;;;;;;15.77;12.10;;;;;;;16.40;61.45;101525.66;4998337;28;98536;-72
2023/04/16 09:31:28;;;;;;;18.95;13.20;;;;;;;16.28;61.76;101523.53;5007068;28;98612;-71
2023/04/16 09:34:03;;;;;;;22.65;13.25;;;;;;;16.46;60.78;101514.69;5002686;28;98949;-71
2023/04/16 09:36:30;;;;;;;17.30;12.57;;;;;;;16.62;60.70;101528.19;5003818;28;100483;-73
2023/04/16 09:38:57;;;;;;;20.38;13.55;;;;;;;16.53;61.00;101523.28;5007450;28;97426;-72
2023/04/16 09:41:26;;;;;;;18.95;13.50;;;;;;;16.47;61.17;101526.22;5005394;28;100164;-73
2023/04/16 09:43:56;;;;;;;19.48;13.73;;;;;;;16.44;60.61;101531.69;4999336;28;99851;-72
2023/04/16 09:46:23;;;;;;;20.35;13.55;;;;;;;16.46;61.03;101532.50;5008512;28;98170;-73
2023/04/16 09:48:50;;;;;;;20.90;14.35;;;;;;;16.42;61.65;101533.56;5015415;28;97368;-72
2023/04/16 09:51:18;;;;;;;24.27;14.77;;;;;;;16.45;61.36;101538.78;5004013;28;98581;-74
2023/04/16 09:53:44;;;;;;;20.92;14.65;;;;;;;16.41;60.95;101532.69;5004103;28;99688;-71
2023/04/16 09:56:12;;;;;;;24.27;14.73;;;;;;;16.34;61.64;101537.47;5002739;28;99999;-71
2023/04/16 09:58:41;;;;;;;24.38;16.77;;;;;;;16.51;61.10;101535.81;5012896;28;97523;-72
2023/04/16 10:01:11;;;;;;;26.52;16.65;;;;;;;16.43;61.29;101537.97;5002193;28;98752;-73
2023/04/16 10:03:40;;;;;;;25.50;15.70;;;;;;;16.48;61.11;101539.47;4996049;28;100009;-76
2023/04/16 10:06:14;;;;;;;23.85;16.13;;;;;;;16.38;61.39;101545.31;5012470;28;101318;-72
2023/04/16 10:08:46;;;;;;;27.02;16.40;;;;;;;16.53;60.84;101540.16;5011140;28;97035;-72
2023/04/16 10:11:13;;;;;;;23.48;16.50;;;;;;;16.67;61.57;101542.19;5001440;28;99236;-74
2023/04/16 10:13:40;;;;;;;29.65;16.80;;;;;;;16.66;60.49;101543.13;5002470;28;102073;-71
2023/04/16 10:16:07;;;;;;;24.20;15.43;;;;;;;16.83;59.57;101555.63;5002630;28;99852;-72
2023/04/16 10:18:36;;;;;;;28.02;15.80;;;;;;;17.23;59.13;101554.53;5007160;28;99179;-73
2023/04/16 10:21:02;;;;;;;25.83;16.20;;;;;;;17.47;58.35;101542.59;5007925;28;96919;-72
2023/04/16 10:23:29;;;;;;;27.05;17.05;;;;;;;17.12;58.20;101563.97;5013202;28;98246;-73
2023/04/16 10:25:58;;;;;;;26.83;16.95;;;;;;;17.03;58.50;101558.19;5001069;28;100461;-72
2023/04/16 10:28:25;;;;;;;28.08;18.13;;;;;;;17.03;58.61;101561.75;5004265;28;97450;-71
2023/04/16 10:30:53;;;;;;;25.38;17.90;;;;;;;16.94;58.44;101558.63;5008710;28;97396;-73
2023/04/16 10:33:21;;;;;;;25.80;17.42;;;;;;;16.92;58.88;101553.41;5004000;28;103194;-73
2023/04/16 10:35:49;;;;;;;26.65;17.92;;;;;;;16.70;59.70;101550.91;5003150;28;98851;-73
2023/04/16 10:38:23;;;;;;;26.50;16.88;;;;;;;16.90;59.46;101560.59;5014060;28;98281;-72
2023/04/16 10:40:49;;;;;;;27.25;18.58;;;;;;;16.99;58.78;101562.84;5003855;28;97521;-71
2023/04/16 10:43:19;;;;;;;28.73;19.27;;;;;;;17.03;58.67;101560.88;5003206;28;99484;-69
2023/04/16 10:45:47;;;;;;;30.38;19.10;;;;;;;17.23;58.29;101566.09;5006092;28;101310;-69
2023/04/16 10:48:16;;;;;;;29.45;18.88;;;;;;;17.08;58.68;101562.38;4998480;28;97854;-69
2023/04/16 10:50:42;;;;;;;28.48;17.80;;;;;;;17.06;58.52;101561.59;5007322;28;97600;-70
2023/04/16 10:53:24;;;;;;;27.20;18.25;;;;;;;17.60;57.96;101564.19;5017465;28;99268;-69
2023/04/16 10:55:58;;;;;;;24.88;16.92;;;;;;;17.66;57.21;101567.44;4995907;28;98674;-72
2023/04/16 10:58:29;;;;;;;26.70;17.25;;;;;;;17.58;56.95;101566.97;4996411;28;98894;-71
2023/04/16 11:00:55;;;;;;;25.33;17.45;;;;;;;17.69;56.71;101567.31;5003012;28;96970;-71
2023/04/16 11:03:22;;;;;;;26.25;16.95;;;;;;;17.71;56.09;101577.94;5003036;28;98950;-72
2023/04/16 11:05:48;;;;;;;24.88;16.98;;;;;;;17.78;56.29;101568.66;5004177;28;100492;-71
2023/04/16 11:08:15;;;;;;;24.65;17.08;;;;;;;18.17;55.42;101571.00;5008899;28;97345;-72
2023/04/16 11:10:42;;;;;;;22.58;16.80;;;;;;;18.19;54.46;101572.63;5012992;28;97330;-72